createdAt,value
2018-02-03T00:01:11.206Z,99877.04
2018-02-03T00:03:41.067Z,99873.48
2018-02-03T00:06:10.145Z,99876.73
2018-02-03T00:08:39.258Z,99871.87
2018-02-03T00:11:09.137Z,99867.30
2018-02-03T00:13:39.031Z,99858.27
2018-02-03T00:16:08.117Z,99860.75
2018-02-03T00:18:37.252Z,99856.99
2018-02-03T00:21:06.388Z,99852.38
2018-02-03T00:23:35.469Z,99850.36
2018-02-03T00:26:05.333Z,99849.11
2018-02-03T00:28:34.419Z,99850.11
2018-02-03T00:31:03.512Z,99848.79
2018-02-03T00:33:32.614Z,99857.25
2018-02-03T00:36:01.708Z,99844.06
2018-02-03T00:38:30.812Z,99854.98
2018-02-03T00:41:00.849Z,99844.80
2018-02-03T00:43:29.935Z,99844.30
2018-02-03T00:45:59.039Z,99846.16
2018-02-03T00:48:28.123Z,99847.51
2018-02-03T00:50:57.994Z,99837.91
2018-02-03T00:53:27.825Z,99838.20
2018-02-03T00:55:56.950Z,99835.13
2018-02-03T00:58:26.029Z,99833.80
2018-02-03T01:00:55.137Z,99832.72
2018-02-03T01:03:24.225Z,99834.84
2018-02-03T01:05:53.294Z,99835.55
2018-02-03T01:08:22.397Z,99847.86
2018-02-03T01:10:51.491Z,99839.70
2018-02-03T01:13:20.587Z,99838.38
2018-02-03T01:15:49.662Z,99841.95
2018-02-03T01:18:19.537Z,99840.76
2018-02-03T01:20:49.394Z,99844.36
2018-02-03T01:23:18.482Z,99851.38
2018-02-03T01:25:49.085Z,99850.18
2018-02-03T01:28:18.195Z,99848.59
2018-02-03T01:30:47.322Z,99854.03
2018-02-03T01:33:16.423Z,99848.73
2018-02-03T01:35:45.511Z,99847.83
2018-02-03T01:38:14.613Z,99849.28
2018-02-03T01:40:43.713Z,99853.02
2018-02-03T01:43:12.829Z,99858.19
2018-02-03T01:45:42.215Z,99853.34
2018-02-03T01:48:11.316Z,99849.23
2018-02-03T01:50:40.422Z,99853.07
2018-02-03T01:53:09.534Z,99848.67
2018-02-03T01:55:38.618Z,99850.78
2018-02-03T01:58:07.745Z,99842.27
2018-02-03T02:00:36.838Z,99846.89
2018-02-03T02:03:05.925Z,99842.22
2018-02-03T02:05:35.054Z,99840.16
2018-02-03T02:08:04.916Z,99841.14
2018-02-03T02:10:34.040Z,99838.92
2018-02-03T02:13:03.116Z,99837.26
2018-02-03T02:15:32.407Z,99833.22
2018-02-03T02:18:01.513Z,99833.91
2018-02-03T02:20:30.617Z,99838.24
2018-02-03T02:22:59.713Z,99834.41
2018-02-03T02:25:28.804Z,99838.95
2018-02-03T02:27:58.466Z,99833.17
2018-02-03T02:30:28.296Z,99828.97
2018-02-03T02:32:57.412Z,99830.07
2018-02-03T02:35:26.510Z,99834.05
2018-02-03T02:37:55.581Z,99828.45
2018-02-03T02:40:24.688Z,99831.95
2018-02-03T02:42:53.795Z,99824.98
2018-02-03T02:45:22.921Z,99829.48
2018-02-03T02:47:52.006Z,99823.83
2018-02-03T02:50:21.138Z,99818.61
2018-02-03T02:52:51.020Z,99816.91
2018-02-03T02:55:20.122Z,99820.47
2018-02-03T02:57:49.212Z,99819.26
2018-02-03T03:00:18.335Z,99827.65
2018-02-03T03:02:48.185Z,99821.54
2018-02-03T03:05:17.280Z,99821.77
2018-02-03T03:07:46.356Z,99817.55
2018-02-03T03:10:15.466Z,99810.14
2018-02-03T03:12:44.543Z,99820.83
2018-02-03T03:15:14.403Z,99817.86
2018-02-03T03:17:45.117Z,99804.33
2018-02-03T03:20:14.209Z,99803.28
2018-02-03T03:22:43.331Z,99806.33
2018-02-03T03:25:13.209Z,99798.28
2018-02-03T03:27:42.304Z,99797.04
2018-02-03T03:30:11.380Z,99794.83
2018-02-03T03:32:41.974Z,99792.59
2018-02-03T03:35:11.057Z,99794.34
2018-02-03T03:37:40.181Z,99793.02
2018-02-03T03:40:09.281Z,99799.36
2018-02-03T03:42:39.146Z,99797.62
2018-02-03T03:45:08.244Z,99787.40
2018-02-03T03:47:37.329Z,99783.52
2018-02-03T03:50:06.435Z,99783.75
2018-02-03T03:52:35.525Z,99791.51
2018-02-03T03:55:04.617Z,99793.49
2018-02-03T03:57:33.722Z,99794.83
2018-02-03T04:00:02.822Z,99790.66
2018-02-03T04:02:31.908Z,99792.55
2018-02-03T04:05:01.030Z,99793.98
2018-02-03T04:07:30.101Z,99786.64
2018-02-03T04:09:59.206Z,99795.67
2018-02-03T04:12:28.349Z,99792.07
2018-02-03T04:14:58.214Z,99799.91
2018-02-03T04:17:27.293Z,99801.72
2018-02-03T04:19:57.161Z,99805.92
2018-02-03T04:22:26.281Z,99800.86
2018-02-03T04:24:56.143Z,99808.82
2018-02-03T04:27:25.250Z,99810.14
2018-02-03T04:29:54.346Z,99802.95
2018-02-03T04:32:23.436Z,99797.34
2018-02-03T04:34:52.531Z,99794.55
2018-02-03T04:37:21.637Z,99791.77
2018-02-03T04:39:50.718Z,99796.06
2018-02-03T04:42:19.833Z,99800.05
2018-02-03T04:44:48.941Z,99791.67
2018-02-03T04:47:18.037Z,99798.31
2018-02-03T04:49:47.161Z,99791.88
2018-02-03T04:52:16.994Z,99793.30
2018-02-03T04:54:46.870Z,99792.73
2018-02-03T04:57:15.958Z,99798.74
2018-02-03T04:59:45.052Z,99797.17
2018-02-03T05:02:14.173Z,99805.45
2018-02-03T05:04:44.021Z,99803.37
2018-02-03T05:07:13.127Z,99807.73
2018-02-03T05:09:42.241Z,99811.28
2018-02-03T05:12:11.462Z,99809.05
2018-02-03T05:14:42.076Z,99807.34
2018-02-03T05:17:11.755Z,99808.37
2018-02-03T05:19:40.878Z,99808.48
2018-02-03T05:22:09.963Z,99808.52
2018-02-03T05:24:39.952Z,99813.77
2018-02-03T05:27:09.041Z,99814.78
2018-02-03T05:29:38.143Z,99811.09
2018-02-03T05:32:07.250Z,99807.92
2018-02-03T05:34:36.330Z,99803.52
2018-02-03T05:37:05.434Z,99805.33
2018-02-03T05:39:34.531Z,99803.61
2018-02-03T05:42:03.645Z,99802.77
2018-02-03T05:44:33.489Z,99797.98
2018-02-03T05:47:03.377Z,99795.94
2018-02-03T05:49:32.467Z,99801.06
2018-02-03T05:52:01.579Z,99799.82
2018-02-03T05:54:31.460Z,99800.08
2018-02-03T05:57:00.929Z,99799.84
2018-02-03T05:59:30.780Z,99798.60
2018-02-03T06:01:59.890Z,99798.80
2018-02-03T06:04:29.018Z,99799.83
2018-02-03T06:06:58.828Z,99795.77
2018-02-03T06:09:28.036Z,99804.00
2018-02-03T06:11:57.128Z,99807.98
2018-02-03T06:14:26.214Z,99800.34
2018-02-03T06:16:55.314Z,99810.80
2018-02-03T06:19:24.421Z,99806.75
2018-02-03T06:21:54.295Z,99814.55
2018-02-03T06:24:23.402Z,99807.08
2018-02-03T06:26:52.493Z,99812.27
2018-02-03T06:29:21.601Z,99804.09
2018-02-03T06:31:50.707Z,99814.75
2018-02-03T06:34:19.812Z,99805.43
2018-02-03T06:36:48.913Z,99808.50
2018-02-03T06:39:18.001Z,99816.50
2018-02-03T06:41:48.622Z,99809.77
2018-02-03T06:44:17.717Z,99815.73
2018-02-03T06:46:46.830Z,99812.80
2018-02-03T06:49:16.722Z,99819.01
2018-02-03T06:51:45.818Z,99816.31
2018-02-03T06:54:14.950Z,99818.58
2018-02-03T06:56:44.839Z,99819.58
2018-02-03T06:59:13.931Z,99827.61
2018-02-03T07:01:43.037Z,99829.03
2018-02-03T07:04:12.128Z,99830.31
2018-02-03T07:06:41.246Z,99831.87
2018-02-03T07:09:11.109Z,99827.14
2018-02-03T07:11:40.993Z,99828.98
2018-02-03T07:14:10.073Z,99831.73
2018-02-03T07:16:39.925Z,99827.84
2018-02-03T07:19:09.042Z,99827.28
2018-02-03T07:21:38.135Z,99822.50
2018-02-03T07:24:07.257Z,99825.54
2018-02-03T07:26:37.114Z,99829.73
2018-02-03T07:29:06.233Z,99836.84
2018-02-03T07:31:35.330Z,99833.91
2018-02-03T07:34:04.424Z,99832.97
2018-02-03T07:39:06.871Z,99830.55
2018-02-03T07:41:36.769Z,99833.86
2018-02-03T07:44:06.635Z,99831.63
2018-02-03T07:46:35.781Z,99833.34
2018-02-03T07:49:05.656Z,99835.13
2018-02-03T07:51:35.540Z,99835.89
2018-02-03T07:54:04.648Z,99834.05
2018-02-03T07:56:34.510Z,99831.41
2018-02-03T07:59:04.066Z,99835.05
2018-02-03T08:01:33.182Z,99829.38
2018-02-03T08:04:02.278Z,99840.39
2018-02-03T08:06:31.383Z,99833.67
2018-02-03T08:09:00.509Z,99841.29
2018-02-03T08:11:30.373Z,99842.75
2018-02-03T08:13:59.501Z,99844.74
2018-02-03T08:16:28.600Z,99845.17
2018-02-03T08:18:57.694Z,99841.80
2018-02-03T08:21:26.822Z,99847.72
2018-02-03T08:23:56.710Z,99837.60
2018-02-03T08:26:25.815Z,99836.98
2018-02-03T08:28:54.924Z,99832.11
2018-02-03T08:31:24.029Z,99824.48
2018-02-03T08:33:53.877Z,99834.56
2018-02-03T08:36:22.988Z,99827.23
2018-02-03T08:38:52.105Z,99836.75
2018-02-03T08:41:21.979Z,99829.69
2018-02-03T08:43:51.073Z,99824.86
2018-02-03T08:46:20.166Z,99826.05
2018-02-03T08:48:50.348Z,99824.05
2018-02-03T08:51:19.446Z,99821.04
2018-02-03T08:53:49.310Z,99812.94
2018-02-03T08:56:18.403Z,99818.77
2018-02-03T08:58:47.516Z,99814.41
2018-02-03T09:01:16.623Z,99820.61
2018-02-03T09:03:45.727Z,99817.15
2018-02-03T09:06:14.825Z,99820.94
2018-02-03T09:08:43.941Z,99825.34
2018-02-03T09:11:13.022Z,99819.52
2018-02-03T09:13:42.122Z,99821.89
2018-02-03T09:16:12.014Z,99826.81
2018-02-03T09:18:41.101Z,99821.84
2018-02-03T09:21:10.231Z,99815.73
2018-02-03T09:23:40.103Z,99819.23
2018-02-03T09:26:09.216Z,99819.14
2018-02-03T09:28:38.312Z,99819.75
2018-02-03T09:31:07.434Z,99815.67
2018-02-03T09:33:37.351Z,99813.64
2018-02-03T09:36:06.464Z,99813.20
2018-02-03T09:38:35.558Z,99808.58
2018-02-03T09:41:05.451Z,99815.58
2018-02-03T09:43:34.557Z,99815.91
2018-02-03T09:46:04.427Z,99817.30
2018-02-03T09:48:34.286Z,99816.58
2018-02-03T09:51:04.216Z,99818.48
2018-02-03T09:53:34.053Z,99828.63
2018-02-03T09:56:03.178Z,99830.86
2018-02-03T09:58:32.273Z,99823.59
2018-02-03T10:01:01.644Z,99829.12
2018-02-03T10:03:30.731Z,99828.98
2018-02-03T10:05:59.845Z,99833.25
2018-02-03T10:08:28.926Z,99831.34
2018-02-03T10:10:58.040Z,99829.12
2018-02-03T10:13:27.161Z,99829.50
2018-02-03T10:15:57.712Z,99821.44
2018-02-03T10:18:28.876Z,99830.14
2018-02-03T10:21:00.487Z,99826.78
2018-02-03T10:23:29.693Z,99821.94
2018-02-03T10:25:59.505Z,99823.80
2018-02-03T10:28:28.612Z,99821.14
2018-02-03T10:30:57.714Z,99824.02
2018-02-03T10:33:26.839Z,99818.94
2018-02-03T10:35:56.698Z,99819.03
2018-02-03T10:38:25.803Z,99815.41
2018-02-03T10:40:54.929Z,99819.05
2018-02-03T10:43:24.794Z,99826.33
2018-02-03T10:45:53.923Z,99823.92
2018-02-03T10:48:23.000Z,99815.88
2018-02-03T10:50:52.122Z,99812.22
2018-02-03T10:53:21.257Z,99814.67
2018-02-03T10:55:50.346Z,99811.33
2018-02-03T10:58:20.205Z,99811.06
2018-02-03T11:00:50.856Z,99799.62
2018-02-03T11:03:19.955Z,99809.11
2018-02-03T11:05:49.040Z,99807.27
2018-02-03T11:08:18.153Z,99798.14
2018-02-03T11:10:48.034Z,99803.55
2018-02-03T11:13:17.158Z,99795.11
2018-02-03T11:15:46.265Z,99792.66
2018-02-03T11:18:16.151Z,99791.22
2018-02-03T11:20:45.280Z,99787.52
2018-02-03T11:23:15.150Z,99787.42
2018-02-03T11:25:44.280Z,99785.98
2018-02-03T11:28:14.150Z,99785.78
2018-02-03T11:30:43.286Z,99788.16
2018-02-03T11:33:12.384Z,99784.05
2018-02-03T11:35:41.502Z,99783.58
2018-02-03T11:38:11.377Z,99789.02
2018-02-03T11:40:40.479Z,99783.34
2018-02-03T11:43:09.617Z,99784.58
2018-02-03T11:45:39.465Z,99778.63
2018-02-03T11:48:08.597Z,99777.70
2018-02-03T11:50:37.673Z,99781.81
2018-02-03T11:53:06.824Z,99773.52
2018-02-03T11:55:35.908Z,99768.06
2018-02-03T11:58:05.031Z,99762.67
2018-02-03T12:00:34.130Z,99765.95
2018-02-03T12:03:03.282Z,99766.34
2018-02-03T12:05:32.386Z,99768.33
2018-02-03T12:08:03.183Z,99767.88
2018-02-03T12:10:32.291Z,99759.72
2018-02-03T12:13:01.377Z,99765.07
2018-02-03T12:15:30.503Z,99765.55
2018-02-03T12:18:00.362Z,99757.55
2018-02-03T12:20:29.490Z,99758.34
2018-02-03T12:22:58.621Z,99751.91
2018-02-03T12:25:28.458Z,99744.28
2018-02-03T12:27:57.564Z,99741.33
2018-02-03T12:30:26.689Z,99743.70
2018-02-03T12:32:56.601Z,99748.38
2018-02-03T12:35:25.703Z,99745.77
2018-02-03T12:37:54.830Z,99743.16
2018-02-03T12:40:23.939Z,99739.39
2018-02-03T12:42:53.786Z,99736.67
2018-02-03T12:45:22.900Z,99734.59
2018-02-03T12:47:52.051Z,99722.86
2018-02-03T12:50:21.151Z,99721.27
2018-02-03T12:52:51.087Z,99710.27
2018-02-03T12:55:20.209Z,99710.39
2018-02-03T12:57:49.350Z,99708.45
2018-02-03T13:00:18.459Z,99705.52
2018-02-03T13:02:47.577Z,99699.53
2018-02-03T13:05:16.673Z,99702.09
2018-02-03T13:07:45.791Z,99699.28
2018-02-03T13:10:14.880Z,99688.28
2018-02-03T13:12:43.999Z,99693.34
2018-02-03T13:15:13.120Z,99691.58
2018-02-03T13:17:43.000Z,99685.70
2018-02-03T13:20:12.141Z,99687.20
2018-02-03T13:22:41.230Z,99690.98
2018-02-03T13:25:10.349Z,99681.56
2018-02-03T13:27:39.458Z,99687.22
2018-02-03T13:30:09.134Z,99676.02
2018-02-03T13:32:38.238Z,99682.03
2018-02-03T13:35:07.334Z,99680.55
2018-02-03T13:37:36.693Z,99684.77
2018-02-03T13:40:05.817Z,99681.20
2018-02-03T13:42:34.946Z,99680.44
2018-02-03T13:45:04.804Z,99679.69
2018-02-03T13:47:35.781Z,99679.37
2018-02-03T13:50:05.688Z,99678.99
2018-02-03T13:52:34.812Z,99674.31
2018-02-03T13:55:03.936Z,99675.52
2018-02-03T13:57:33.088Z,99672.59
2018-02-03T14:00:02.196Z,99671.58
2018-02-03T14:02:31.315Z,99672.66
2018-02-03T14:05:01.199Z,99669.12
2018-02-03T14:07:30.306Z,99667.27
2018-02-03T14:09:59.487Z,99668.06
2018-02-03T14:12:29.397Z,99668.10
2018-02-03T14:14:58.571Z,99668.48
2018-02-03T14:17:28.468Z,99671.27
2018-02-03T14:19:57.568Z,99676.33
2018-02-03T14:22:26.741Z,99668.80
2018-02-03T14:25:02.962Z,99669.02
2018-02-03T14:27:32.826Z,99675.36
2018-02-03T14:30:02.825Z,99675.75
2018-02-03T14:32:32.030Z,99692.44
2018-02-03T14:35:01.123Z,99698.89
2018-02-03T14:37:30.251Z,99701.67
2018-02-03T14:39:59.343Z,99694.46
2018-02-03T14:42:28.455Z,99693.38
2018-02-03T14:44:57.568Z,99692.59
2018-02-03T14:47:27.453Z,99705.80
2018-02-03T14:49:56.556Z,99693.12
2018-02-03T14:52:26.045Z,99688.98
2018-02-03T14:54:55.167Z,99698.73
2018-02-03T14:57:24.265Z,99694.83
2018-02-03T14:59:54.185Z,99694.97
2018-02-03T15:02:24.186Z,99692.47
2018-02-03T15:04:53.304Z,99690.06
2018-02-03T15:07:23.188Z,99689.86
2018-02-03T15:09:52.304Z,99693.55
2018-02-03T15:12:22.185Z,99688.04
2018-02-03T15:14:51.325Z,99697.30
2018-02-03T15:17:20.455Z,99694.03
2018-02-03T15:19:49.588Z,99686.84
2018-02-03T15:22:18.700Z,99685.77
2018-02-03T15:24:48.573Z,99686.19
2018-02-03T15:27:17.711Z,99688.97
2018-02-03T15:29:46.808Z,99691.75
2018-02-03T15:32:17.642Z,99685.56
2018-02-03T15:34:46.919Z,99687.59
2018-02-03T15:37:16.049Z,99690.48
2018-02-03T15:39:45.935Z,99696.02
2018-02-03T15:42:15.070Z,99697.41
2018-02-03T15:44:44.919Z,99690.70
2018-02-03T15:47:14.035Z,99695.95
2018-02-03T15:49:43.206Z,99694.49
2018-02-03T15:52:13.299Z,99697.49
2018-02-03T15:54:43.018Z,99704.73
2018-02-03T15:57:12.152Z,99699.19
2018-02-03T15:59:41.263Z,99696.97
2018-02-03T16:02:11.342Z,99705.01
2018-02-03T16:04:40.438Z,99700.41
2018-02-03T16:07:09.541Z,99696.63
2018-02-03T16:09:38.654Z,99701.22
2018-02-03T16:12:10.035Z,99701.13
2018-02-03T16:14:39.957Z,99701.70
2018-02-03T16:17:09.069Z,99697.59
2018-02-03T16:19:38.196Z,99707.51
2018-02-03T16:22:07.298Z,99705.95
2018-02-03T16:24:37.360Z,99700.41
2018-02-03T16:27:07.247Z,99704.42
2018-02-03T16:29:36.368Z,99711.55
2018-02-03T16:32:06.241Z,99726.84
2018-02-03T16:34:35.378Z,99725.92
2018-02-03T16:37:04.480Z,99727.31
2018-02-03T16:39:33.582Z,99726.48
2018-02-03T16:42:03.442Z,99727.90
2018-02-03T16:44:32.578Z,99727.44
2018-02-03T16:47:02.443Z,99733.80
2018-02-03T16:49:31.555Z,99740.34
2018-02-03T16:52:00.654Z,99737.16
2018-02-03T16:54:29.786Z,99740.11
2018-02-03T16:56:59.680Z,99740.99
2018-02-03T16:59:28.802Z,99743.13
2018-02-03T17:01:58.156Z,99747.02
2018-02-03T17:04:27.258Z,99746.43
2018-02-03T17:06:56.384Z,99737.68
2018-02-03T17:09:25.876Z,99738.42
2018-02-03T17:11:54.950Z,99742.77
2018-02-03T17:14:24.083Z,99744.46
2018-02-03T17:16:53.184Z,99738.50
2018-02-03T17:19:23.074Z,99745.73
2018-02-03T17:21:52.183Z,99740.71
2018-02-03T17:24:21.323Z,99743.88
2018-02-03T17:26:50.410Z,99759.48
2018-02-03T17:29:19.519Z,99755.07
2018-02-03T17:31:48.609Z,99753.16
2018-02-03T17:34:17.695Z,99753.17
2018-02-03T17:36:52.270Z,99749.29
2018-02-03T17:39:21.386Z,99752.44
2018-02-03T17:41:51.280Z,99753.86
2018-02-03T17:44:20.369Z,99757.63
2018-02-03T17:46:56.477Z,99764.30
2018-02-03T17:49:27.005Z,99761.86
2018-02-03T17:51:56.134Z,99755.95
2018-02-03T17:54:25.290Z,99757.27
2018-02-03T17:57:00.701Z,99753.86
2018-02-03T17:59:29.810Z,99756.41
2018-02-03T18:01:59.755Z,99752.02
2018-02-03T18:04:29.615Z,99754.05
2018-02-03T18:07:04.153Z,99761.84
2018-02-03T18:09:33.237Z,99759.67
2018-02-03T18:12:02.378Z,99760.78
2018-02-03T18:14:32.254Z,99768.36
2018-02-03T18:17:01.400Z,99761.30
2018-02-03T18:19:31.280Z,99763.20
2018-02-03T18:22:00.418Z,99764.87
2018-02-03T18:24:30.310Z,99765.55
2018-02-03T18:27:00.206Z,99771.08
2018-02-03T18:29:32.067Z,99768.05
2018-02-03T18:32:01.157Z,99774.65
2018-02-03T18:34:30.290Z,99781.02
2018-02-03T18:37:00.152Z,99774.96
2018-02-03T18:39:29.276Z,99777.52
2018-02-03T18:41:58.384Z,99789.17
2018-02-03T18:44:28.274Z,99779.79
2018-02-03T18:46:57.449Z,99785.66
2018-02-03T18:49:26.567Z,99780.80
2018-02-03T18:51:56.068Z,99779.91
2018-02-03T18:54:25.201Z,99785.54
2018-02-03T18:56:55.057Z,99791.30
2018-02-03T18:59:24.183Z,99796.16
2018-02-03T19:01:53.301Z,99791.98
2018-02-03T19:04:23.180Z,99797.00
2018-02-03T19:06:52.305Z,99793.23
2018-02-03T19:09:21.410Z,99792.36
2018-02-03T19:11:51.290Z,99789.92
2018-02-03T19:14:20.394Z,99795.30
2018-02-03T19:16:49.546Z,99798.33
2018-02-03T19:19:18.628Z,99802.58
2018-02-03T19:21:47.732Z,99800.41
2018-02-03T19:24:16.874Z,99800.20
2018-02-03T19:26:45.997Z,99803.22
2018-02-03T19:29:15.901Z,99802.21
2018-02-03T19:31:44.986Z,99804.22
2018-02-03T19:34:14.904Z,99802.18
2018-02-03T19:36:44.014Z,99805.73
2018-02-03T19:39:13.873Z,99807.69
2018-02-03T19:41:43.022Z,99811.45
2018-02-03T19:44:12.168Z,99808.75
2018-02-03T19:46:41.295Z,99814.75
2018-02-03T19:49:10.411Z,99815.83
2018-02-03T19:51:41.035Z,99813.84
2018-02-03T19:54:10.938Z,99817.95
2018-02-03T19:56:40.126Z,99817.06
2018-02-03T19:59:09.474Z,99813.13
2018-02-03T20:01:38.605Z,99821.14
2018-02-03T20:04:07.725Z,99818.92
2018-02-03T20:06:36.806Z,99814.75
2018-02-03T20:09:06.712Z,99818.27
2018-02-03T20:11:35.812Z,99821.02
2018-02-03T20:14:04.958Z,99825.97
2018-02-03T20:16:34.062Z,99825.97
2018-02-03T20:19:05.866Z,99825.45
2018-02-03T20:21:34.963Z,99833.19
2018-02-03T20:24:04.897Z,99830.35
2018-02-03T20:26:34.012Z,99830.02
2018-02-03T20:29:03.145Z,99838.26
2018-02-03T20:31:32.252Z,99833.47
2018-02-03T20:34:01.408Z,99834.70
2018-02-03T20:36:30.518Z,99841.80
2018-02-03T20:39:00.402Z,99837.59
2018-02-03T20:41:29.537Z,99843.59
2018-02-03T20:44:00.156Z,99849.42
2018-02-03T20:46:30.065Z,99848.80
2018-02-03T20:48:59.172Z,99850.95
2018-02-03T20:51:29.097Z,99847.44
2018-02-03T20:53:58.182Z,99860.84
2018-02-03T20:56:28.061Z,99857.91
2018-02-03T20:58:57.190Z,99861.74
2018-02-03T21:01:27.099Z,99863.59
2018-02-03T21:03:57.031Z,99866.66
2018-02-03T21:06:26.888Z,99871.20
2018-02-03T21:08:56.004Z,99869.04
2018-02-03T21:11:25.130Z,99871.77
2018-02-03T21:13:55.022Z,99876.12
2018-02-03T21:16:24.143Z,99868.36
2018-02-03T21:18:54.025Z,99884.03
2018-02-03T21:21:23.162Z,99880.53
2018-02-03T21:23:52.284Z,99880.86
2018-02-03T21:26:22.183Z,99886.35
2018-02-03T21:28:51.301Z,99880.48
2018-02-03T21:31:20.427Z,99884.65
2018-02-03T21:33:49.506Z,99888.91
2018-02-03T21:36:18.625Z,99891.47
2018-02-03T21:38:49.251Z,99897.28
2018-02-03T21:41:18.392Z,99896.78
2018-02-03T21:43:47.501Z,99896.20
2018-02-03T21:46:16.625Z,99894.60
2018-02-03T21:48:45.753Z,99898.14
2018-02-03T21:51:15.648Z,99890.90
2018-02-03T21:53:44.796Z,99897.72
2018-02-03T21:56:13.947Z,99903.73
2018-02-03T21:58:43.057Z,99907.56
2018-02-03T22:01:12.934Z,99915.84
2018-02-03T22:03:42.063Z,99919.39
2018-02-03T22:06:11.196Z,99926.02
2018-02-03T22:08:40.313Z,99929.27
2018-02-03T22:11:09.400Z,99927.89
2018-02-03T22:13:38.527Z,99932.66
2018-02-03T22:16:08.484Z,99936.19
2018-02-03T22:18:38.374Z,99938.31
2018-02-03T22:21:08.599Z,99939.67
2018-02-03T22:23:37.720Z,99945.73
2018-02-03T22:26:06.825Z,99947.59
2018-02-03T22:28:35.926Z,99945.88
2018-02-03T22:31:05.054Z,99946.85
2018-02-03T22:33:34.143Z,99953.37
2018-02-03T22:36:03.264Z,99958.56
2018-02-03T22:38:33.579Z,99959.02
2018-02-03T22:41:03.593Z,99960.72
2018-02-03T22:43:32.681Z,99965.92
2018-02-03T22:46:01.895Z,99968.70
2018-02-03T22:48:30.974Z,99970.98
2018-02-03T22:51:00.103Z,99972.44
2018-02-03T22:53:29.204Z,99966.50
2018-02-03T22:55:58.314Z,99963.51
2018-02-03T22:58:28.171Z,99974.05
2018-02-03T23:01:02.707Z,99976.45
2018-02-03T23:03:31.837Z,99978.52
2018-02-03T23:06:01.708Z,99976.78
2018-02-03T23:08:32.497Z,99988.34
2018-02-03T23:11:01.629Z,99994.83
2018-02-03T23:13:30.749Z,99995.95
2018-02-03T23:16:00.622Z,99994.09
2018-02-03T23:18:29.719Z,99996.42
2018-02-03T23:20:59.163Z,100000.10
2018-02-03T23:23:28.290Z,99998.20
2018-02-03T23:25:59.226Z,99997.28
2018-02-03T23:28:28.379Z,100001.82
2018-02-03T23:30:57.505Z,100003.05
2018-02-03T23:33:26.613Z,99999.61
2018-02-03T23:35:55.716Z,100001.72
2018-02-03T23:41:00.827Z,100016.17
2018-02-03T23:43:29.943Z,100008.91
2018-02-03T23:45:59.055Z,100018.66
2018-02-03T23:48:28.913Z,100019.52
2018-02-03T23:50:58.049Z,100023.42
2018-02-03T23:53:27.133Z,100018.16
2018-02-03T23:55:56.279Z,100016.76
2018-02-03T23:58:25.387Z,100017.52
